Airport View

Enter AWOS ICAO identifier for current METAR.

ex. KFNL

KEYE 261053Z AUTO VRB03KT 10SM CLR 21/17 A3008 RMK AO2 SLP178 T02060172

26 Jun 2019 11:49

Frequency: 121.575

Phone: 317-329-1754

Other Area AWOS: KIND - KTYQ - KHFY - KMQJ

TAF AMD KIND 260831Z 2609/2712 21008KT P6SM SCT250 FM261800 23007KT P6SM VCSH SCT250 FM262100 23007KT P6SM SCT250